createdAt,value
2022-10-11T00:00:21.419Z,20.20
2022-10-11T00:02:48.795Z,19.77
2022-10-11T00:05:16.250Z,20.42
2022-10-11T00:07:43.658Z,19.95
2022-10-11T00:10:11.237Z,20.30
2022-10-11T00:12:38.772Z,19.65
2022-10-11T00:15:07.296Z,20.15
2022-10-11T00:17:35.710Z,20.58
2022-10-11T00:20:03.104Z,20.92
2022-10-11T00:22:30.419Z,19.58
2022-10-11T00:24:59.055Z,19.88
2022-10-11T00:27:26.438Z,19.60
2022-10-11T00:29:54.044Z,20.05
2022-10-11T00:32:21.439Z,19.33
2022-10-11T00:34:48.957Z,19.35
2022-10-11T00:37:16.446Z,19.08
2022-10-11T00:39:43.821Z,17.55
2022-10-11T00:42:16.708Z,17.58
2022-10-11T00:44:47.006Z,16.73
2022-10-11T00:47:24.857Z,14.85
2022-10-11T00:49:59.574Z,14.10
2022-10-11T00:52:41.141Z,14.52
2022-10-11T00:55:19.048Z,14.18
2022-10-11T00:57:49.963Z,15.30
2022-10-11T01:00:17.300Z,14.32
2022-10-11T01:02:44.834Z,14.70
2022-10-11T01:05:32.455Z,14.13
2022-10-11T01:08:01.012Z,14.57
2022-10-11T01:10:29.220Z,14.48
2022-10-11T01:13:00.557Z,14.63
2022-10-11T01:16:00.034Z,15.73
2022-10-11T01:19:00.037Z,16.98
2022-10-11T01:21:49.004Z,17.88
2022-10-11T01:24:26.455Z,17.73
2022-10-11T01:27:11.817Z,17.73
2022-10-11T01:29:57.506Z,18.52
2022-10-11T01:32:34.304Z,17.65
2022-10-11T01:35:17.532Z,19.38
2022-10-11T01:37:51.402Z,17.95
2022-10-11T01:40:42.649Z,18.52
2022-10-11T01:43:10.713Z,17.98
2022-10-11T01:45:39.357Z,15.23
2022-10-11T01:48:12.941Z,17.20
2022-10-11T01:50:48.051Z,17.30
2022-10-11T01:53:48.625Z,16.38
2022-10-11T01:56:35.299Z,16.02
2022-10-11T01:59:31.929Z,14.55
2022-10-11T02:02:22.621Z,14.73
2022-10-11T02:05:03.047Z,18.05
2022-10-11T02:07:50.570Z,18.27
2022-10-11T02:10:25.010Z,19.15
2022-10-11T02:13:02.789Z,19.02
2022-10-11T02:15:32.523Z,17.90
2022-10-11T02:18:03.108Z,17.95
2022-10-11T02:20:34.652Z,18.15
2022-10-11T02:23:13.926Z,16.48
2022-10-11T02:25:43.190Z,14.00
2022-10-11T02:28:17.215Z,13.30
2022-10-11T02:30:47.531Z,9.32
2022-10-11T02:33:18.795Z,7.55
2022-10-11T02:35:54.756Z,7.60
2022-10-11T02:38:31.147Z,6.68
2022-10-11T02:41:12.802Z,6.75
2022-10-11T02:43:47.231Z,7.93
2022-10-11T02:46:17.584Z,6.80
2022-10-11T02:48:45.059Z,5.82
2022-10-11T02:51:14.556Z,6.10
2022-10-11T02:53:41.837Z,6.40
2022-10-11T02:56:09.191Z,6.30
2022-10-11T02:58:36.518Z,6.20
2022-10-11T03:01:04.069Z,5.93
2022-10-11T03:03:31.438Z,5.53
2022-10-11T03:06:03.958Z,5.22
2022-10-11T03:08:31.828Z,4.20
2022-10-11T03:10:59.156Z,4.35
2022-10-11T03:13:26.646Z,4.40
2022-10-11T03:16:02.684Z,4.10
2022-10-11T03:18:31.256Z,4.13
2022-10-11T03:20:58.675Z,3.58
2022-10-11T03:23:25.966Z,3.63
2022-10-11T03:25:53.364Z,3.63
2022-10-11T03:28:21.116Z,3.58
2022-10-11T03:30:49.716Z,3.60
2022-10-11T03:33:17.719Z,3.15
2022-10-11T03:35:46.214Z,3.40
2022-10-11T03:38:15.161Z,3.50
2022-10-11T03:40:43.682Z,3.88
2022-10-11T03:43:11.921Z,3.60
2022-10-11T03:45:39.715Z,3.17
2022-10-11T03:48:07.176Z,3.60
2022-10-11T03:50:34.749Z,3.63
2022-10-11T03:53:02.236Z,3.40
2022-10-11T03:55:29.532Z,3.60
2022-10-11T03:57:56.950Z,3.53
2022-10-11T04:00:24.376Z,3.53
2022-10-11T04:02:51.693Z,3.42
2022-10-11T04:05:19.081Z,3.55
2022-10-11T04:07:46.318Z,4.10
2022-10-11T04:10:14.823Z,3.95
2022-10-11T04:12:42.233Z,3.63
2022-10-11T04:15:14.802Z,3.88
2022-10-11T04:17:42.390Z,4.00
2022-10-11T04:20:10.165Z,3.90
2022-10-11T04:22:41.536Z,4.07
2022-10-11T04:25:09.655Z,3.88
2022-10-11T04:27:37.014Z,3.90
2022-10-11T04:30:04.786Z,4.03
2022-10-11T04:32:32.164Z,3.83
2022-10-11T04:34:59.447Z,3.80
2022-10-11T04:37:26.770Z,3.80
2022-10-11T04:39:54.057Z,4.30
2022-10-11T04:42:21.547Z,4.15
2022-10-11T04:44:48.921Z,4.35
2022-10-11T04:47:16.107Z,4.05
2022-10-11T04:49:43.470Z,3.70
2022-10-11T04:52:10.713Z,4.03
2022-10-11T04:54:38.139Z,4.38
2022-10-11T04:57:05.901Z,5.45
2022-10-11T04:59:33.296Z,5.55
2022-10-11T05:02:00.686Z,5.88
2022-10-11T05:04:28.459Z,5.55
2022-10-11T05:06:55.826Z,5.80
2022-10-11T05:09:23.457Z,6.30
2022-10-11T05:11:50.839Z,5.68
2022-10-11T05:14:18.239Z,6.30
2022-10-11T05:16:45.516Z,5.88
2022-10-11T05:19:12.960Z,6.28
2022-10-11T05:21:40.395Z,6.63
2022-10-11T05:24:08.283Z,7.30
2022-10-11T05:26:35.888Z,8.18
2022-10-11T05:29:03.871Z,7.57
2022-10-11T05:31:31.332Z,7.78
2022-10-11T05:33:58.661Z,7.57
2022-10-11T05:36:26.316Z,8.25
2022-10-11T05:38:53.588Z,8.35
2022-10-11T05:41:20.952Z,8.60
2022-10-11T05:43:48.416Z,9.02
2022-10-11T05:46:15.836Z,9.38
2022-10-11T05:48:43.166Z,10.18
2022-10-11T05:51:12.683Z,10.98
2022-10-11T05:53:40.196Z,11.60
2022-10-11T05:56:19.809Z,12.50
2022-10-11T05:58:47.517Z,14.20
2022-10-11T06:01:32.748Z,13.73
2022-10-11T06:04:00.387Z,14.07
2022-10-11T06:06:27.801Z,15.13
2022-10-11T06:08:55.578Z,17.00
2022-10-11T06:11:26.251Z,17.00
2022-10-11T06:13:55.445Z,16.70
2022-10-11T06:16:22.856Z,18.75
2022-10-11T06:18:53.788Z,17.88
2022-10-11T06:21:23.564Z,16.80
2022-10-11T06:23:54.569Z,11.38
2022-10-11T06:26:24.561Z,14.70
2022-10-11T06:28:52.001Z,13.20
2022-10-11T06:31:19.666Z,11.20
2022-10-11T06:33:46.968Z,10.55
2022-10-11T06:36:15.183Z,11.52
2022-10-11T06:38:45.256Z,10.30
2022-10-11T06:41:25.402Z,8.52
2022-10-11T06:43:53.007Z,8.35
2022-10-11T06:46:21.725Z,9.43
2022-10-11T06:48:49.479Z,11.68
2022-10-11T06:51:21.405Z,10.13
2022-10-11T06:53:53.681Z,12.98
2022-10-11T06:56:21.602Z,14.48
2022-10-11T06:58:48.996Z,12.88
2022-10-11T07:01:20.291Z,13.95
2022-10-11T07:03:48.870Z,14.30
2022-10-11T07:06:18.972Z,9.57
2022-10-11T07:08:47.202Z,14.43
2022-10-11T07:11:20.895Z,13.25
2022-10-11T07:13:53.877Z,13.48
2022-10-11T07:16:22.210Z,13.82
2022-10-11T07:18:59.543Z,13.20
2022-10-11T07:21:29.365Z,12.57
2022-10-11T07:23:56.865Z,12.98
2022-10-11T07:26:24.178Z,11.18
2022-10-11T07:28:51.998Z,7.93
2022-10-11T07:31:22.742Z,5.13
2022-10-11T07:33:50.386Z,3.80
2022-10-11T07:36:17.932Z,3.92
2022-10-11T07:38:47.275Z,5.05
2022-10-11T07:41:14.891Z,4.50
2022-10-11T07:43:43.780Z,4.32
2022-10-11T07:46:11.580Z,4.45
2022-10-11T07:48:40.375Z,4.75
2022-10-11T07:51:15.524Z,4.88
2022-10-11T07:53:45.450Z,3.70
2022-10-11T07:56:16.030Z,3.70
2022-10-11T07:58:43.908Z,3.90
2022-10-11T08:01:12.176Z,3.72
2022-10-11T08:03:39.698Z,4.10
2022-10-11T08:06:09.996Z,3.20
2022-10-11T08:08:38.263Z,2.72
2022-10-11T08:11:06.488Z,3.05
2022-10-11T08:13:34.542Z,4.10
2022-10-11T08:16:09.953Z,3.47
2022-10-11T08:18:37.290Z,3.10
2022-10-11T08:21:12.333Z,3.65
2022-10-11T08:23:40.194Z,5.15
2022-10-11T08:26:08.547Z,4.50
2022-10-11T08:28:36.570Z,3.25
2022-10-11T08:31:04.482Z,4.07
2022-10-11T08:33:31.893Z,2.95
2022-10-11T08:35:59.215Z,3.17
2022-10-11T08:38:26.503Z,3.40
2022-10-11T08:40:56.616Z,3.28
2022-10-11T08:43:45.383Z,3.40
2022-10-11T08:46:15.477Z,3.33
2022-10-11T08:48:50.432Z,3.60
2022-10-11T08:51:26.603Z,2.92
2022-10-11T08:54:12.722Z,3.25
2022-10-11T08:56:43.431Z,2.70
2022-10-11T08:59:13.779Z,3.00
2022-10-11T09:01:50.409Z,2.88
2022-10-11T09:04:18.592Z,2.50
2022-10-11T09:07:01.300Z,2.75
2022-10-11T09:10:08.108Z,2.88
2022-10-11T09:12:50.343Z,2.72
2022-10-11T09:15:26.721Z,2.50
2022-10-11T09:18:02.549Z,2.60
2022-10-11T09:20:59.568Z,2.55
2022-10-11T09:23:59.932Z,3.10
2022-10-11T09:26:43.823Z,3.25
2022-10-11T09:29:50.739Z,3.17
2022-10-11T09:32:23.148Z,2.72
2022-10-11T09:35:02.563Z,3.60
2022-10-11T09:37:42.545Z,3.25
2022-10-11T09:40:38.910Z,3.13
2022-10-11T09:43:06.337Z,3.28
2022-10-11T09:45:33.640Z,3.35
2022-10-11T09:48:03.202Z,3.15
2022-10-11T09:50:32.061Z,3.80
2022-10-11T09:53:03.643Z,3.80
2022-10-11T09:55:33.685Z,4.40
2022-10-11T09:58:05.058Z,4.95
2022-10-11T10:00:34.274Z,4.15
2022-10-11T10:03:04.113Z,4.15
2022-10-11T10:05:34.233Z,4.75
2022-10-11T10:08:23.676Z,5.15
2022-10-11T10:10:59.390Z,5.60
2022-10-11T10:13:43.648Z,6.25
2022-10-11T10:16:23.156Z,7.18
2022-10-11T10:18:54.781Z,7.38
2022-10-11T10:21:45.188Z,8.35
2022-10-11T10:24:40.518Z,7.22
2022-10-11T10:27:18.405Z,6.05
2022-10-11T10:30:09.303Z,6.40
2022-10-11T10:32:48.532Z,5.30
2022-10-11T10:35:35.082Z,5.20
2022-10-11T10:38:30.671Z,5.40
2022-10-11T10:41:01.856Z,5.53
2022-10-11T10:43:38.141Z,5.70
2022-10-11T10:46:29.588Z,2.80
2022-10-11T10:49:54.686Z,3.13
2022-10-11T10:52:28.540Z,2.78
2022-10-11T10:55:20.028Z,2.75
2022-10-11T10:58:12.899Z,3.38
2022-10-11T11:01:10.878Z,3.83
2022-10-11T11:03:46.917Z,2.30
2022-10-11T11:06:37.339Z,2.45
2022-10-11T11:09:14.109Z,2.25
2022-10-11T11:11:50.452Z,2.40
2022-10-11T11:14:44.279Z,2.05
2022-10-11T11:17:24.431Z,2.05
2022-10-11T11:20:03.388Z,2.28
2022-10-11T11:23:09.341Z,2.20
2022-10-11T11:26:01.453Z,2.90
2022-10-11T11:29:11.653Z,2.85
2022-10-11T11:31:59.549Z,2.88
2022-10-11T11:34:38.630Z,2.70
2022-10-11T11:37:22.253Z,3.20
2022-10-11T11:39:52.657Z,2.83
2022-10-11T11:42:26.569Z,3.70
2022-10-11T11:44:54.145Z,4.00
2022-10-11T11:47:26.981Z,4.38
2022-10-11T11:49:58.886Z,3.92
2022-10-11T11:52:32.138Z,4.47
2022-10-11T11:55:10.934Z,4.65
2022-10-11T11:58:13.393Z,5.38
2022-10-11T12:00:52.385Z,4.95
2022-10-11T12:03:26.473Z,5.78
2022-10-11T12:06:12.728Z,5.25
2022-10-11T12:08:42.936Z,5.07
2022-10-11T12:11:21.357Z,5.90
2022-10-11T12:13:51.270Z,5.80
2022-10-11T12:16:19.730Z,7.05
2022-10-11T12:19:02.370Z,6.82
2022-10-11T12:21:43.652Z,5.80
2022-10-11T12:24:51.569Z,5.93
2022-10-11T12:27:41.325Z,9.43
2022-10-11T12:30:54.780Z,10.10
2022-10-11T12:33:33.316Z,10.65
2022-10-11T12:36:22.126Z,10.40
2022-10-11T12:39:21.511Z,10.60
2022-10-11T12:41:51.795Z,11.57
2022-10-11T12:44:19.023Z,10.65
2022-10-11T12:46:55.234Z,10.93
2022-10-11T12:49:44.408Z,10.48
2022-10-11T12:52:17.960Z,10.77
2022-10-11T12:55:03.740Z,11.18
2022-10-11T12:57:49.591Z,11.40
2022-10-11T13:00:29.930Z,10.73
2022-10-11T13:03:01.715Z,11.13
2022-10-11T13:05:52.371Z,11.48
2022-10-11T13:08:33.957Z,13.15
2022-10-11T13:11:12.242Z,11.50
2022-10-11T13:13:44.370Z,12.40
2022-10-11T13:16:18.507Z,12.57
2022-10-11T13:18:49.268Z,14.30
2022-10-11T13:21:32.121Z,14.95
2022-10-11T13:24:02.936Z,14.23
2022-10-11T13:26:31.818Z,15.60
2022-10-11T13:29:00.829Z,16.42
2022-10-11T13:31:28.441Z,17.10
2022-10-11T13:33:59.349Z,14.60
2022-10-11T13:36:27.787Z,14.13
2022-10-11T13:38:58.549Z,14.75
2022-10-11T13:41:28.362Z,11.68
2022-10-11T13:43:57.660Z,12.93
2022-10-11T13:46:28.187Z,11.55
2022-10-11T13:49:37.236Z,11.02
2022-10-11T13:52:28.398Z,11.32
2022-10-11T13:55:08.034Z,12.02
2022-10-11T13:57:38.242Z,12.40
2022-10-11T14:00:10.901Z,12.57
2022-10-11T14:02:39.346Z,11.95
2022-10-11T14:05:07.007Z,12.88
2022-10-11T14:07:39.133Z,13.80
2022-10-11T14:10:07.670Z,13.45
2022-10-11T14:12:44.574Z,13.60
2022-10-11T14:15:38.417Z,12.98
2022-10-11T14:18:37.565Z,14.57
2022-10-11T14:21:20.179Z,13.63
2022-10-11T14:23:51.753Z,12.65
2022-10-11T14:26:20.606Z,11.48
2022-10-11T14:28:59.779Z,10.50
2022-10-11T14:31:30.462Z,10.48
2022-10-11T14:33:58.631Z,9.50
2022-10-11T14:36:26.326Z,9.57
2022-10-11T14:38:54.281Z,9.82
2022-10-11T14:41:22.019Z,9.63
2022-10-11T14:43:49.833Z,10.73
2022-10-11T14:46:27.630Z,9.60
2022-10-11T14:48:56.584Z,10.70
2022-10-11T14:51:31.561Z,9.88
2022-10-11T14:53:59.095Z,10.15
2022-10-11T14:56:26.371Z,9.68
2022-10-11T14:58:53.712Z,10.13
2022-10-11T15:01:21.229Z,9.98
2022-10-11T15:03:48.809Z,11.55
2022-10-11T15:06:30.366Z,11.82
2022-10-11T15:08:57.919Z,11.82
2022-10-11T15:11:26.767Z,10.75
2022-10-11T15:13:54.272Z,10.98
2022-10-11T15:16:22.433Z,10.73
2022-10-11T15:18:52.889Z,11.00
2022-10-11T15:21:22.613Z,11.23
2022-10-11T15:23:51.020Z,10.63
2022-10-11T15:26:24.192Z,7.93
2022-10-11T15:28:53.574Z,8.35
2022-10-11T15:31:21.757Z,8.40
2022-10-11T15:33:49.818Z,9.75
2022-10-11T15:36:22.550Z,10.25
2022-10-11T15:38:50.185Z,8.05
2022-10-11T15:41:19.154Z,7.63
2022-10-11T15:43:48.545Z,8.65
2022-10-11T15:46:22.351Z,9.38
2022-10-11T15:48:51.350Z,8.95
2022-10-11T15:51:19.434Z,9.05
2022-10-11T15:53:47.448Z,10.35
2022-10-11T15:56:18.896Z,9.43
2022-10-11T15:58:46.755Z,8.25
2022-10-11T16:01:17.728Z,7.90
2022-10-11T16:03:49.032Z,7.18
2022-10-11T16:06:17.548Z,6.90
2022-10-11T16:08:45.226Z,6.38
2022-10-11T16:11:13.501Z,5.95
2022-10-11T16:13:41.138Z,6.22
2022-10-11T16:16:09.942Z,6.35
2022-10-11T16:18:37.840Z,6.05
2022-10-11T16:21:11.322Z,5.43
2022-10-11T16:23:39.248Z,5.72
2022-10-11T16:26:10.017Z,6.47
2022-10-11T16:28:38.102Z,6.72
2022-10-11T16:31:10.501Z,6.63
2022-10-11T16:33:46.270Z,6.03
2022-10-11T16:36:51.770Z,7.32
2022-10-11T16:39:20.088Z,6.50
2022-10-11T16:41:47.931Z,9.02
2022-10-11T16:44:17.027Z,6.78
2022-10-11T16:46:48.774Z,7.15
2022-10-11T16:49:18.091Z,7.75
2022-10-11T16:51:45.618Z,7.47
2022-10-11T16:54:16.601Z,8.18
2022-10-11T16:56:47.014Z,8.07
2022-10-11T16:59:14.367Z,8.05
2022-10-11T17:01:42.080Z,7.53
2022-10-11T17:04:09.999Z,8.35
2022-10-11T17:06:38.008Z,8.95
2022-10-11T17:09:05.498Z,8.45
2022-10-11T17:11:33.302Z,9.15
2022-10-11T17:14:02.042Z,9.35
2022-10-11T17:16:29.800Z,9.73
2022-10-11T17:18:57.168Z,9.15
2022-10-11T17:21:24.720Z,8.98
2022-10-11T17:23:52.241Z,10.15
2022-10-11T17:26:25.090Z,10.15
2022-10-11T17:28:54.953Z,10.50
2022-10-11T17:31:23.117Z,10.77
2022-10-11T17:33:51.199Z,12.35
2022-10-11T17:36:24.905Z,11.02
2022-10-11T17:38:56.139Z,11.60
2022-10-11T17:41:29.468Z,11.98
2022-10-11T17:43:59.701Z,11.63
2022-10-11T17:46:28.424Z,11.88
2022-10-11T17:48:55.976Z,11.50
2022-10-11T17:51:23.542Z,12.73
2022-10-11T17:53:51.758Z,13.95
2022-10-11T17:56:26.741Z,13.98
2022-10-11T17:58:57.430Z,14.63
2022-10-11T18:01:28.324Z,13.48
2022-10-11T18:04:04.974Z,15.20
2022-10-11T18:06:38.374Z,15.55
2022-10-11T18:09:06.281Z,15.52
2022-10-11T18:11:33.692Z,17.48
2022-10-11T18:14:01.963Z,17.58
2022-10-11T18:16:30.725Z,17.58
2022-10-11T18:18:58.985Z,18.58
2022-10-11T18:21:33.632Z,20.20
2022-10-11T18:24:08.178Z,18.35
2022-10-11T18:26:35.666Z,17.67
2022-10-11T18:29:04.093Z,16.45
2022-10-11T18:31:34.508Z,17.52
2022-10-11T18:34:03.369Z,16.52
2022-10-11T18:36:32.198Z,16.73
2022-10-11T18:39:03.170Z,17.33
2022-10-11T18:41:32.375Z,15.60
2022-10-11T18:44:02.648Z,15.68
2022-10-11T18:46:30.863Z,14.82
2022-10-11T18:48:59.884Z,15.77
2022-10-11T18:51:33.839Z,14.52
2022-10-11T18:54:01.765Z,13.50
2022-10-11T18:56:30.716Z,14.07
2022-10-11T18:58:59.402Z,15.55
2022-10-11T19:01:30.321Z,15.30
2022-10-11T19:04:00.108Z,16.10
2022-10-11T19:06:49.304Z,15.55
2022-10-11T19:09:22.686Z,16.67
2022-10-11T19:11:51.446Z,15.73
2022-10-11T19:14:21.017Z,18.08
2022-10-11T19:16:51.807Z,17.50
2022-10-11T19:19:37.319Z,17.52
2022-10-11T19:22:05.091Z,16.52
2022-10-11T19:24:32.847Z,14.30
2022-10-11T19:27:02.796Z,14.65
2022-10-11T19:29:31.306Z,15.30
2022-10-11T19:32:01.117Z,14.98
2022-10-11T19:34:29.078Z,14.57
2022-10-11T19:36:57.290Z,16.45
2022-10-11T19:39:25.038Z,15.70
2022-10-11T19:41:52.937Z,14.75
2022-10-11T19:44:20.477Z,15.00
2022-10-11T19:46:52.353Z,14.60
2022-10-11T19:49:24.287Z,13.57
2022-10-11T19:51:52.199Z,12.23
2022-10-11T19:54:20.076Z,12.30
2022-10-11T19:56:48.082Z,12.70
2022-10-11T19:59:16.059Z,12.77
2022-10-11T20:01:47.917Z,14.48
2022-10-11T20:04:39.508Z,13.80
2022-10-11T20:07:06.073Z,14.82
2022-10-11T20:09:33.578Z,14.80
2022-10-11T20:12:01.070Z,15.43
2022-10-11T20:14:28.520Z,15.73
2022-10-11T20:16:55.793Z,16.23
2022-10-11T20:19:29.333Z,16.50
2022-10-11T20:21:58.193Z,16.40
2022-10-11T20:24:27.660Z,15.68
2022-10-11T20:26:55.811Z,16.35
2022-10-11T20:29:26.726Z,15.10
2022-10-11T20:31:54.191Z,13.40
2022-10-11T20:34:21.516Z,13.82
2022-10-11T20:36:49.478Z,12.27
2022-10-11T20:39:17.271Z,11.77
2022-10-11T20:41:44.617Z,11.65
2022-10-11T20:44:13.400Z,11.32
2022-10-11T20:46:40.804Z,10.60
2022-10-11T20:49:11.508Z,10.50
2022-10-11T20:51:40.385Z,10.43
2022-10-11T20:54:08.098Z,11.77
2022-10-11T20:56:35.932Z,11.35
2022-10-11T20:59:03.568Z,11.57
2022-10-11T21:01:37.238Z,11.90
2022-10-11T21:04:05.136Z,12.02
2022-10-11T21:06:34.305Z,11.63
2022-10-11T21:09:01.901Z,11.77
2022-10-11T21:11:31.603Z,11.52
2022-10-11T21:14:00.621Z,10.98
2022-10-11T21:16:28.701Z,10.60
2022-10-11T21:18:58.309Z,10.23
2022-10-11T21:21:26.680Z,9.85
2022-10-11T21:23:59.342Z,10.10
2022-10-11T21:26:27.738Z,10.30
2022-10-11T21:28:55.234Z,9.52
2022-10-11T21:31:23.910Z,10.48
2022-10-11T21:33:51.424Z,10.20
2022-10-11T21:36:24.996Z,9.50
2022-10-11T21:38:53.812Z,10.02
2022-10-11T21:41:23.988Z,10.18
2022-10-11T21:43:51.753Z,9.27
2022-10-11T21:46:47.551Z,9.27
2022-10-11T21:49:15.544Z,8.15
2022-10-11T21:51:43.017Z,8.38
2022-10-11T21:54:10.866Z,8.93
2022-10-11T21:56:38.198Z,7.97
2022-10-11T21:59:08.076Z,8.70
2022-10-11T22:01:38.627Z,8.43
2022-10-11T22:04:07.779Z,7.75
2022-10-11T22:06:36.009Z,8.32
2022-10-11T22:09:04.226Z,11.75
2022-10-11T22:11:31.926Z,20.60
2022-10-11T22:13:59.322Z,11.02
2022-10-11T22:16:26.660Z,8.23
2022-10-11T22:18:54.599Z,7.78
2022-10-11T22:21:23.726Z,7.22
2022-10-11T22:23:53.146Z,7.22
2022-10-11T22:26:26.253Z,6.40
2022-10-11T22:28:53.831Z,6.82
2022-10-11T22:31:23.436Z,6.70
2022-10-11T22:33:58.495Z,6.00
2022-10-11T22:36:26.857Z,5.90
2022-10-11T22:38:54.431Z,5.40
2022-10-11T22:41:22.051Z,5.32
2022-10-11T22:43:50.095Z,5.63
2022-10-11T22:46:17.661Z,6.15
2022-10-11T22:48:44.948Z,5.53
2022-10-11T22:51:12.440Z,5.90
2022-10-11T22:53:41.198Z,5.90
2022-10-11T22:56:09.174Z,5.75
2022-10-11T22:58:36.777Z,5.93
2022-10-11T23:01:09.131Z,5.35
2022-10-11T23:03:36.719Z,5.50
2022-10-11T23:06:04.378Z,5.13
2022-10-11T23:08:31.821Z,5.30
2022-10-11T23:11:04.447Z,5.30
2022-10-11T23:13:31.810Z,5.07
2022-10-11T23:15:59.161Z,5.50
2022-10-11T23:18:26.482Z,5.10
2022-10-11T23:20:53.823Z,5.30
2022-10-11T23:23:21.220Z,5.13
2022-10-11T23:25:48.486Z,4.72
2022-10-11T23:28:15.948Z,5.25
2022-10-11T23:30:43.280Z,5.03
2022-10-11T23:33:10.740Z,4.68
2022-10-11T23:35:38.035Z,5.28
2022-10-11T23:38:05.485Z,4.78
2022-10-11T23:40:33.783Z,5.20
2022-10-11T23:43:01.133Z,5.35
2022-10-11T23:45:28.664Z,5.13
2022-10-11T23:47:56.137Z,5.38
2022-10-11T23:50:25.026Z,5.10
2022-10-11T23:52:52.510Z,4.85
2022-10-11T23:55:19.857Z,4.50
2022-10-11T23:57:47.243Z,5.10
